• Join FlightAware (Why Join?)
  • Login
  • US Flag GB Flag 
08:17 EST


 

Airport Tracker/Info


-or-


 

Live Flight TrackerFlight Track Log ✈ AFL150 ✈ 24-Dec-2013 ✈ UUEE / SVO - MUHA / HAV

Flight Track Log - Related Links

Times and Time Zones

All times are in EST time to prevent confusion due to time zone crossing. See the AFL150 flight status page for this flight to view local times or setup timezone preferences in your user account.

Time Position Orientation Groundspeed Altitude Reporting Facility
EST Latitude Longitude Course Direction KTS MPH feet Rate Location/Type
04:39 56.1029 37.1676 317° Northwest  Level FlightAware Approximate
04:40 56.1787 37.0377 316° Northwest  Level FlightAware Approximate
04:41 56.2545 36.9072 316° Northwest  Level FlightAware Approximate
04:42 56.3301 36.7763 316° Northwest  Level FlightAware Approximate
04:43 56.4055 36.6448 316° Northwest  Level FlightAware Approximate
04:44 56.4809 36.5128 316° Northwest  Level FlightAware Approximate
04:45 56.5560 36.3803 316° Northwest  Level FlightAware Approximate
04:46 56.6311 36.2472 316° Northwest  Level FlightAware Approximate
04:47 56.7060 36.1136 316° Northwest  Level FlightAware Approximate
04:48 56.7807 35.9795 316° Northwest  Level FlightAware Approximate
04:49 56.8554 35.8449 315° West  Level FlightAware Approximate
04:50 56.9298 35.7097 315° West  Level FlightAware Approximate
04:51 57.0041 35.5740 315° West  Level FlightAware Approximate
04:52 57.0783 35.4377 315° West  Level FlightAware Approximate
04:53 57.1523 35.3009 315° West  Level FlightAware Approximate
04:54 57.2262 35.1635 315° West  Level FlightAware Approximate
04:55 57.2999 35.0256 315° West  Level FlightAware Approximate
04:56 57.3735 34.8871 315° West  Level FlightAware Approximate
04:57 57.4469 34.7481 314° West  Level FlightAware Approximate
04:58 57.5063 34.5873 312° West  Level Estimated
04:59 57.5769 34.4429 312° West  Level FlightAware Approximate
05:00 57.6474 34.2979 312° West  Level FlightAware Approximate
05:01 57.7177 34.1523 312° West  Level FlightAware Approximate
05:02 57.7878 34.0061 312° West  Level FlightAware Approximate
05:03 57.8577 33.8594 312° West  Level FlightAware Approximate
05:04 57.9275 33.7121 312° West  Level FlightAware Approximate
05:05 57.9971 33.5643 312° West  Level FlightAware Approximate
05:06 58.0666 33.4159 312° West  Level FlightAware Approximate
05:07 58.1358 33.2668 311° West  Level FlightAware Approximate
05:08 58.2049 33.1172 311° West  Level FlightAware Approximate
05:09 58.2738 32.9671 311° West  Level FlightAware Approximate
05:10 58.3425 32.8163 311° West  Level FlightAware Approximate
05:11 58.4111 32.6650 311° West  Level FlightAware Approximate
05:12 58.4795 32.5130 311° West  Level FlightAware Approximate
05:13 58.5477 32.3605 311° West  Level FlightAware Approximate
05:14 58.6157 32.2074 311° West  Level FlightAware Approximate
05:15 58.6835 32.0537 310° West  Level FlightAware Approximate
05:16 58.7512 31.8993 310° West  Level FlightAware Approximate
05:17 58.8187 31.7444 310° West  Level FlightAware Approximate
05:18 58.8859 31.5889 310° West  Level FlightAware Approximate
05:19 58.9530 31.4328 310° West  Level FlightAware Approximate
05:20 59.0199 31.2761 310° West  Level FlightAware Approximate
05:21 59.0866 31.1187 310° West  Level FlightAware Approximate
05:22 59.1532 30.9608 309° West  Level FlightAware Approximate
05:23 59.2195 30.8022 309° West  Level FlightAware Approximate
05:24 59.2856 30.6430 309° West  Level FlightAware Approximate
05:25 59.3516 30.4832 309° West  Level FlightAware Approximate
05:26 59.4173 30.3228 309° West  Level FlightAware Approximate
05:27 59.4829 30.1617 309° West  Level FlightAware Approximate
05:28 59.5482 30.0000 309° West  Level FlightAware Approximate
05:29 59.6134 29.8377 308° West  Level FlightAware Approximate
05:30 59.6783 29.6748 308° West  Level FlightAware Approximate
05:31 59.7431 29.5113 308° West  Level FlightAware Approximate
05:32 59.8076 29.3471 308° West  Level FlightAware Approximate
05:33 59.8719 29.1822 308° West  Level FlightAware Approximate
05:34 59.9361 29.0168 308° West  Level FlightAware Approximate
05:35 60.0000 28.8507 308° West  Level FlightAware Approximate
05:36 60.0637 28.6839 307° West  Level FlightAware Approximate
05:37 60.1272 28.5165 307° West  Level FlightAware Approximate
05:38 60.1905 28.3484 307° West  Level FlightAware Approximate
05:39 60.2536 28.1798 307° West  Level FlightAware Approximate
05:40 60.3164 28.0104 307° West  Level FlightAware Approximate
05:41 60.3667 27.8244 306° West  Level Estimated
05:42 60.4286 27.6531 306° West  Level FlightAware Approximate
05:43 60.4904 27.4812 306° West  Level FlightAware Approximate
05:44 60.5519 27.3086 306° West  Level FlightAware Approximate
05:45 60.6132 27.1354 306° West  Level FlightAware Approximate
05:46 60.6743 26.9615 306° West  Level FlightAware Approximate
05:47 60.7351 26.7869 306° West  Level FlightAware Approximate
05:48 60.7957 26.6117 305° West  Level FlightAware Approximate
05:49 60.8561 26.4358 305° West  Level FlightAware Approximate
05:50 60.9163 26.2593 305° West  Level FlightAware Approximate
05:51 60.9762 26.0820 305° West  Level FlightAware Approximate
05:52 61.0359 25.9042 305° West  Level FlightAware Approximate
05:53 61.0953 25.7256 305° West  Level FlightAware Approximate
05:54 61.1546 25.5464 304° West  Level FlightAware Approximate
05:55 61.2135 25.3665 304° West  Level FlightAware Approximate
05:56 61.2723 25.1859 304° West  Level FlightAware Approximate
05:57 61.3308 25.0047 304° West  Level FlightAware Approximate
05:58 61.3890 24.8228 304° West  Level FlightAware Approximate
05:59 61.4471 24.6402 304° West  Level FlightAware Approximate
06:00 61.5048 24.4569 304° West  Level FlightAware Approximate
06:01 61.5624 24.2729 303° West  Level FlightAware Approximate
06:02 61.6196 24.0883 303° West  Level FlightAware Approximate
06:03 61.6767 23.9030 303° West  Level FlightAware Approximate
06:04 61.7335 23.7169 303° West  Level FlightAware Approximate
06:05 61.7900 23.5303 303° West  Level FlightAware Approximate
06:06 61.8462 23.3429 303° West  Level FlightAware Approximate
06:07 61.9022 23.1548 302° West  Level FlightAware Approximate
06:08 61.9580 22.9660 302° West  Level FlightAware Approximate
06:09 62.0135 22.7766 302° West  Level FlightAware Approximate
06:10 62.0687 22.5865 302° West  Level FlightAware Approximate
06:11 62.1237 22.3956 302° West  Level FlightAware Approximate
06:12 62.1784 22.2041 302° West  Level FlightAware Approximate
06:13 62.2329 22.0119 301° West  Level FlightAware Approximate
06:14 62.2871 21.8190 301° West  Level FlightAware Approximate
06:15 62.3410 21.6254 301° West  Level FlightAware Approximate
06:16 62.3946 21.4311 301° West  Level FlightAware Approximate
06:17 62.4480 21.2361 301° West  Level FlightAware Approximate
06:18 62.5011 21.0404 301° West  Level FlightAware Approximate
06:19 62.5539 20.8440 300° West  Level FlightAware Approximate
06:20 62.6064 20.6470 300° West  Level FlightAware Approximate
06:21 62.6587 20.4492 300° West  Level FlightAware Approximate
06:22 62.7107 20.2507 300° West  Level FlightAware Approximate
06:23 62.7624 20.0516 300° West  Level FlightAware Approximate
06:24 62.8138 19.8517 299° West  Level FlightAware Approximate
06:25 62.8650 19.6511 299° West  Level FlightAware Approximate
06:26 62.9158 19.4499 299° West  Level FlightAware Approximate
06:27 62.9664 19.2479 299° West  Level FlightAware Approximate
06:28 63.0167 19.0452 299° West  Level FlightAware Approximate
06:29 63.0667 18.8419 299° West  Level FlightAware Approximate
06:30 63.1163 18.6378 298° West  Level FlightAware Approximate
06:31 63.1657 18.4331 298° West  Level FlightAware Approximate
06:32 63.2149 18.2276 298° West  Level FlightAware Approximate
06:33 63.2637 18.0215 298° West  Level FlightAware Approximate
06:34 63.3122 17.8147 298° West  Level FlightAware Approximate
06:35 63.3604 17.6071 297° West  Level FlightAware Approximate
06:36 63.4083 17.3989 297° West  Level FlightAware Approximate
06:37 63.4559 17.1900 297° West  Level FlightAware Approximate
06:38 63.5032 16.9803 297° West  Level FlightAware Approximate
06:39 63.5502 16.7700 297° West  Level FlightAware Approximate
06:40 63.5968 16.5590 297° West  Level FlightAware Approximate
06:41 63.6432 16.3473 296° West  Level FlightAware Approximate
06:42 63.6893 16.1349 296° West  Level FlightAware Approximate
06:43 63.7350 15.9219 296° West  Level FlightAware Approximate
06:44 63.7804 15.7081 296° West  Level FlightAware Approximate
06:45 63.8256 15.4937 296° West  Level FlightAware Approximate
06:46 63.8703 15.2785 295° West  Level FlightAware Approximate
06:47 63.9148 15.0627 295° West  Level FlightAware Approximate
06:48 63.9590 14.8462 295° West  Level FlightAware Approximate
06:49 64.0028 14.6290 295° West  Level FlightAware Approximate
06:50 64.0463 14.4111 295° West  Level FlightAware Approximate
06:51 64.0894 14.1926 294° West  Level FlightAware Approximate
06:52 64.1323 13.9734 294° West  Level FlightAware Approximate
06:53 64.1748 13.7535 294° West  Level FlightAware Approximate
06:54 64.2170 13.5329 294° West  Level FlightAware Approximate
06:55 64.2588 13.3117 294° West  Level FlightAware Approximate
06:56 64.3003 13.0898 293° West  Level FlightAware Approximate
06:57 64.3415 12.8672 293° West  Level FlightAware Approximate
06:58 64.3824 12.6440 293° West  Level FlightAware Approximate
06:59 64.4229 12.4200 293° West  Level FlightAware Approximate
07:00 64.4630 12.1955 293° West  Level FlightAware Approximate
07:01 64.5028 11.9703 292° West  Level FlightAware Approximate
07:02 64.5423 11.7444 292° West  Level FlightAware Approximate
07:03 64.5814 11.5179 292° West  Level FlightAware Approximate
07:04 64.6202 11.2907 292° West  Level FlightAware Approximate
07:05 64.6586 11.0629 292° West  Level FlightAware Approximate
07:06 64.6967 10.8344 291° West  Level FlightAware Approximate
07:07 64.7344 10.6053 291° West  Level FlightAware Approximate
07:08 64.7718 10.3756 291° West  Level FlightAware Approximate
07:09 64.8088 10.1452 291° West  Level FlightAware Approximate
07:09 60.6875 7.5083 291° West 436 502 36,000  Level FlightAware ADS-B (EGBP)
07:10 60.7036 7.3464 282° West 437 503 36,000  Level FlightAware ADS-B (EGBP)
07:11 60.7193 7.1852 281° West 438 504 36,000  Level FlightAware ADS-B (EGBP)
07:11 60.7350 7.0220 281° West 438 504 36,000  Level FlightAware ADS-B (EGBP)
07:12 60.7501 6.8638 281° West 439 505 36,000  Level FlightAware ADS-B (EGBP)
07:13 60.7653 6.7019 281° West 441 507 36,000  Level FlightAware ADS-B (EGBP)
07:13 60.7809 6.5334 281° West 442 509 36,000  Level FlightAware ADS-B (EGBP)
07:14 60.7921 6.4106 281° West 445 512 36,000  Level FlightAware ADS-B (EGBP)
07:15 60.8097 6.2136 280° West 444 511 36,000  Level FlightAware ADS-B (EGBP)
07:15 60.8252 6.0389 280° West 445 512 36,000  Level FlightAware ADS-B (EGBP)
07:16 60.8388 5.8837 280° West 442 509 36,000  Level FlightAware ADS-B (EGBP)
07:19 60.8829 5.3712 280° West  Level Estimated
07:20 60.9006 5.1587 280° West  Level Estimated
07:21 60.9179 4.9460 280° West  Level Estimated
07:22 60.9350 4.7331 279° West  Level Estimated
07:23 60.9516 4.5199 279° West  Level Estimated
07:24 60.9680 4.3065 279° West  Level Estimated
07:25 60.9840 4.0929 279° West  Level Estimated
07:26 60.9996 3.8790 279° West  Level Estimated
07:27 61.0149 3.6650 278° West  Level Estimated
07:28 61.0299 3.4508 278° West  Level Estimated
07:29 61.0446 3.2363 278° West  Level Estimated
07:30 61.0589 3.0217 278° West  Level Estimated
07:31 61.0728 2.8068 278° West  Level Estimated
07:32 61.0864 2.5918 278° West  Level Estimated
07:33 61.0997 2.3766 277° West  Level Estimated
07:34 61.1127 2.1612 277° West  Level Estimated
07:35 61.1253 1.9457 277° West  Level Estimated
07:36 61.1375 1.7300 277° West  Level Estimated
07:37 61.1494 1.5141 277° West  Level Estimated
07:38 61.1610 1.2980 276° West  Level Estimated
07:39 61.1722 1.0818 276° West  Level Estimated
07:40 61.1831 0.8655 276° West  Level Estimated
07:41 61.1936 0.6490 276° West  Level Estimated
07:42 61.2038 0.4323 276° West  Level Estimated
07:43 61.2136 0.2156 275° West  Level Estimated
07:44 61.2231 -0.0014 275° West  Level Estimated
07:45 61.2323 -0.2184 275° West  Level Estimated
07:46 61.2411 -0.4356 275° West  Level Estimated
07:47 61.2495 -0.6528 275° West  Level Estimated
07:48 61.2576 -0.8702 275° West  Level Estimated
07:49 61.2654 -1.0878 274° West  Level Estimated
07:50 61.2728 -1.3054 274° West  Level Estimated
07:51 61.2799 -1.5231 274° West  Level Estimated
07:52 61.2866 -1.7409 274° West  Level Estimated
07:53 61.2929 -1.9588 274° West  Level Estimated
07:54 61.2989 -2.1768 273° West  Level Estimated
07:55 61.3046 -2.3949 273° West  Level Estimated
07:56 61.3099 -2.6130 273° West  Level Estimated
07:57 61.3149 -2.8312 273° West  Level Estimated
07:58 61.3195 -3.0495 273° West  Level Estimated
07:59 61.3237 -3.2679 272° West  Level Estimated
08:00 61.3276 -3.4863 272° West  Level Estimated
08:01 61.3312 -3.7047 272° West  Level Estimated
08:02 61.3344 -3.9232 272° West  Level Estimated
08:03 61.3373 -4.1418 272° West  Level Estimated
08:04 61.3398 -4.3603 271° West  Level Estimated
08:05 61.3419 -4.5789 271° West  Level Estimated
08:06 61.3438 -4.7976 271° West  Level Estimated
08:07 61.3452 -5.0163 271° West  Level Estimated
08:08 61.3463 -5.2349 271° West  Level Estimated
08:09 61.3471 -5.4536 271° West  Level Estimated
08:10 61.3475 -5.6723 270° West  Level Estimated
08:11 61.3475 -5.8910 270° West  Level Estimated
08:12 61.3472 -6.1097 270° West  Level Estimated
08:13 61.3466 -6.3284 270° West  Level Estimated
08:14 61.3456 -6.5471 270° West  Level Estimated
08:15 61.3442 -6.7658 269° West  Level Estimated
08:16 61.3425 -6.9844 269° West  Level Estimated
08:17 61.3404 -7.2031 269° West  Level Estimated
08:18 61.3380 -7.4217 269° West  Level Estimated
08:19 61.3353 -7.6402 269° West  Level Estimated
08:20 61.3322 -7.8587 268° West  Level Estimated
08:21 61.3287 -8.0772 268° West  Level Estimated
08:22 61.3249 -8.2956 268° West  Level Estimated
08:23 61.3207 -8.5140 268° West  Level Estimated
08:24 61.3162 -8.7323 268° West  Level Estimated
08:25 61.3114 -8.9505 267° West  Level Estimated
08:26 61.3061 -9.1687 267° West  Level Estimated
08:27 61.3006 -9.3868 267° West  Level Estimated
08:28 61.2947 -9.6048 267° West  Level Estimated
08:29 61.2884 -9.8227 267° West  Level Estimated
08:30 61.2818 -10.0406 266° West  Level Estimated
08:31 61.2748 -10.2583 266° West  Level Estimated
08:32 61.2675 -10.4759 266° West  Level Estimated
08:33 61.2599 -10.6935 266° West  Level Estimated
08:34 61.2519 -10.9109 266° West  Level Estimated
08:35 61.2435 -11.1282 266° West  Level Estimated
08:36 61.2348 -11.3454 265° West  Level Estimated
08:37 61.2258 -11.5625 265° West  Level Estimated
08:38 61.2164 -11.7795 265° West  Level Estimated
08:39 61.2066 -11.9963 265° West  Level Estimated
08:40 61.1966 -12.2129 265° West  Level Estimated
08:41 61.1861 -12.4295 264° West  Level Estimated
08:42 61.1754 -12.6459 264° West  Level Estimated
08:43 61.1642 -12.8621 264° West  Level Estimated
08:44 61.1528 -13.0782 264° West  Level Estimated
08:45 61.1409 -13.2942 264° West  Level Estimated
08:46 61.1288 -13.5099 263° West  Level Estimated
08:47 61.1163 -13.7255 263° West  Level Estimated
08:48 61.1035 -13.9410 263° West  Level Estimated
08:49 61.0903 -14.1562 263° West  Level Estimated
08:50 61.0768 -14.3713 263° West  Level Estimated
08:51 61.0629 -14.5862 262° West  Level Estimated
08:52 61.0487 -14.8008 262° West  Level Estimated
08:53 61.0341 -15.0154 262° West  Level Estimated
08:54 61.0192 -15.2296 262° West  Level Estimated
08:55 61.0040 -15.4438 262° West  Level Estimated
08:56 60.9884 -15.6576 262° West  Level Estimated
08:57 60.9725 -15.8713 261° West  Level Estimated
08:58 60.9563 -16.0848 261° West  Level Estimated
08:59 60.9397 -16.2980 261° West  Level Estimated
09:00 60.9228 -16.5110 261° West  Level Estimated
09:01 60.9055 -16.7238 261° West  Level Estimated
09:02 60.8880 -16.9364 260° West  Level Estimated
09:03 60.8700 -17.1487 260° West  Level Estimated
09:04 60.8518 -17.3608 260° West  Level Estimated
09:05 60.8332 -17.5726 260° West  Level Estimated
09:06 60.8143 -17.7842 260° West  Level Estimated
09:07 60.7950 -17.9955 260° West  Level Estimated
09:08 60.7754 -18.2066 259° West  Level Estimated
09:09 60.7555 -18.4174 259° West  Level Estimated
09:10 60.7353 -18.6280 259° West  Level Estimated
09:11 60.7147 -18.8383 259° West  Level Estimated
09:12 60.6938 -19.0483 259° West  Level Estimated
09:13 60.6725 -19.2580 258° West  Level Estimated
09:14 60.6510 -19.4675 258° West  Level Estimated
09:15 60.6291 -19.6767 258° West  Level Estimated
09:16 60.6069 -19.8856 258° West  Level Estimated
09:17 60.5843 -20.0942 258° West  Level Estimated
09:18 60.5615 -20.3025 257° West  Level Estimated
09:19 60.5383 -20.5105 257° West  Level Estimated
09:20 60.5148 -20.7182 257° West  Level Estimated
09:21 60.4910 -20.9256 257° West  Level Estimated
09:22 60.4668 -21.1327 257° West  Level Estimated
09:23 60.4423 -21.3395 257° West  Level Estimated
09:24 60.4175 -21.5460 256° West  Level Estimated
09:25 60.3924 -21.7521 256° West  Level Estimated
09:26 60.3670 -21.9580 256° West  Level Estimated
09:27 60.3413 -22.1635 256° West  Level Estimated
09:28 60.3152 -22.3687 256° West  Level Estimated
09:29 60.2888 -22.5736 256° West  Level Estimated
09:30 60.2621 -22.7781 255° West  Level Estimated
09:31 60.2351 -22.9823 255° West  Level Estimated
09:32 60.2078 -23.1861 255° West  Level Estimated
09:33 60.1801 -23.3897 255° West  Level Estimated
09:34 60.1522 -23.5928 255° West  Level Estimated
09:35 60.1239 -23.7957 254° West  Level Estimated
09:36 60.0954 -23.9981 254° West  Level Estimated
09:37 60.0665 -24.2003 254° West  Level Estimated
09:38 60.0373 -24.4021 254° West  Level Estimated
09:39 60.0078 -24.6035 254° West  Level Estimated
09:40 59.9780 -24.8045 254° West  Level Estimated
09:41 59.9479 -25.0052 253° West  Level Estimated
09:42 59.9175 -25.2055 253° West  Level Estimated
09:43 59.8868 -25.4055 253° West  Level Estimated
09:44 59.8558 -25.6050 253° West  Level Estimated
09:45 59.8245 -25.8043 253° West  Level Estimated
09:46 59.7929 -26.0031 253° West  Level Estimated
09:47 59.7610 -26.2015 252° West  Level Estimated
09:48 59.7288 -26.3996 252° West  Level Estimated
09:49 59.6963 -26.5973 252° West  Level Estimated
09:50 59.6635 -26.7946 252° West  Level Estimated
09:51 59.6304 -26.9915 252° West  Level Estimated
09:52 59.5970 -27.1881 252° West  Level Estimated
09:53 59.5633 -27.3842 251° West  Level Estimated
09:54 59.5293 -27.5799 251° West  Level Estimated
09:55 59.4950 -27.7753 251° West  Level Estimated
09:56 59.4605 -27.9702 251° West  Level Estimated
09:57 59.4256 -28.1648 251° West  Level Estimated
09:58 59.3905 -28.3589 251° West  Level Estimated
09:59 59.3550 -28.5527 250° West  Level Estimated
10:00 59.3193 -28.7460 250° West  Level Estimated
10:01 59.2833 -28.9389 250° West  Level Estimated
10:02 59.2470 -29.1315 250° West  Level Estimated
10:03 59.2105 -29.3236 250° West  Level Estimated
10:04 59.1736 -29.5153 250° West  Level Estimated
10:05 59.1365 -29.7066 249° West  Level Estimated
10:06 59.0991 -29.8974 249° West  Level Estimated
10:07 59.0614 -30.0879 249° West  Level Estimated
10:08 59.0234 -30.2779 249° West  Level Estimated
10:09 58.9852 -30.4675 249° West  Level Estimated
10:10 58.9466 -30.6567 249° West  Level Estimated
10:11 58.9078 -30.8455 248° West  Level Estimated
10:12 58.8688 -31.0338 248° West  Level Estimated
10:13 58.8294 -31.2217 248° West  Level Estimated
10:14 58.7898 -31.4092 248° West  Level Estimated
10:15 58.7499 -31.5963 248° West  Level Estimated
10:16 58.7097 -31.7829 248° West  Level Estimated
10:17 58.6693 -31.9691 247° West  Level Estimated
10:18 58.6286 -32.1549 247° West  Level Estimated
10:19 58.5876 -32.3402 247° West  Level Estimated
10:20 58.5464 -32.5251 247° West  Level Estimated
10:21 58.5049 -32.7095 247° West  Level Estimated
10:22 58.4632 -32.8936 247° West  Level Estimated
10:23 58.4211 -33.0771 246° West  Level Estimated
10:24 58.3788 -33.2603 246° West  Level Estimated
10:25 58.3363 -33.4430 246° West  Level Estimated
10:26 58.2935 -33.6252 246° West  Level Estimated
10:27 58.2504 -33.8070 246° West  Level Estimated
10:28 58.2071 -33.9884 246° West  Level Estimated
10:29 58.1635 -34.1694 246° West  Level Estimated
10:30 58.1197 -34.3499 245° Southwest  Level Estimated
10:31 58.0756 -34.5299 245° Southwest  Level Estimated
10:32 58.0312 -34.7095 245° Southwest  Level Estimated
10:33 57.9866 -34.8887 245° Southwest  Level Estimated
10:34 57.9418 -35.0674 245° Southwest  Level Estimated
10:35 57.8967 -35.2456 245° Southwest  Level Estimated
10:36 57.8513 -35.4234 244° Southwest  Level Estimated
10:37 57.8057 -35.6008 244° Southwest  Level Estimated
10:38 57.7599 -35.7777 244° Southwest  Level Estimated
10:39 57.7138 -35.9542 244° Southwest  Level Estimated
10:40 57.6675 -36.1302 244° Southwest  Level Estimated
10:41 57.6209 -36.3058 244° Southwest  Level Estimated
10:42 57.5741 -36.4809 244° Southwest  Level Estimated
10:43 57.5270 -36.6555 243° Southwest  Level Estimated
10:44 57.4797 -36.8298 243° Southwest  Level Estimated
10:45 57.4322 -37.0035 243° Southwest  Level Estimated
10:46 57.3844 -37.1768 243° Southwest  Level Estimated
10:47 57.3364 -37.3497 243° Southwest  Level Estimated
10:48 57.2881 -37.5221 243° Southwest  Level Estimated
10:49 57.2396 -37.6940 243° Southwest  Level Estimated
10:50 57.1909 -37.8655 242° Southwest  Level Estimated
10:51 57.1420 -38.0366 242° Southwest  Level Estimated
10:52 57.0928 -38.2072 242° Southwest  Level Estimated
10:53 57.0434 -38.3773 242° Southwest  Level Estimated
10:54 56.9937 -38.5470 242° Southwest  Level Estimated
10:54 63.1333 -54.9833 241° Southwest 350 403 36,000  Level Gander Center
10:55 56.9438 -38.7162 242° Southwest  Level Estimated
10:55 63.0833 -55.2500 248° West 460 529 36,000  Level Gander Center
10:56 56.8937 -38.8850 242° Southwest  Level Estimated
10:56 63.0167 -55.5167 241° Southwest 470 541 36,000  Level Gander Center
10:57 56.8434 -39.0533 241° Southwest  Level Estimated
10:57 62.9833 -55.7333 251° West 460 529 36,000  Level Gander Center
10:58 56.7844 -39.2492 241° Southwest  Level Estimated
10:58 62.9333 -56.0000 248° West 460 529 36,000  Level Gander Center
10:59 56.7251 -39.4444 241° Southwest  Level Estimated
10:59 62.8667 -56.2667 241° Southwest 460 529 36,000  Level Gander Center
11:00 56.6654 -39.6390 241° Southwest  Level Estimated
11:00 62.8333 -56.5000 253° West 460 529 36,000  Level Gander Center
11:01 62.7667 -56.7500 240° Southwest 460 529 36,000  Level Gander Center
11:02 62.7167 -57.0167 248° West 460 529 36,000  Level Gander Center
11:03 62.6500 -57.2500 238° Southwest 460 529 36,000  Level Gander Center
11:04 62.6000 -57.5000 247° West 460 529 36,000  Level Gander Center
11:05 62.5500 -57.7667 248° West 460 529 36,000  Level Gander Center
11:06 62.4833 -57.9833 236° Southwest 450 518 36,000  Level Gander Center
11:07 62.4500 -58.2333 254° West 450 518 36,000  Level Gander Center
11:08 62.3833 -58.4500 236° Southwest 450 518 36,000  Level Gander Center
11:09 62.3167 -58.7167 242° Southwest 460 529 36,000  Level Gander Center
11:10 62.2667 -58.9667 247° West 460 529 36,000  Level Gander Center
11:11 62.2333 -59.0667 234° Southwest 280 322 36,000  Level Montreal Center
11:12 62.1667 -59.2833 237° Southwest 430 495 36,000  Level Montreal Center
11:13 62.1167 -59.5333 247° West 450 518 36,000  Level Montreal Center
11:14 62.0500 -59.7833 240° Southwest 450 518 36,000  Level Montreal Center
11:15 61.9333 -60.1167 233° Southwest 460 529 36,000  Level Gander Center
11:16 61.8333 -60.3000 221° Southwest 470 541 36,000  Level Gander Center
11:17 61.7500 -60.4833 226° Southwest 460 529 36,000  Level Gander Center
11:18 61.6500 -60.6500 218° Southwest 460 529 36,000  Level Gander Center
11:19 61.5500 -60.8333 221° Southwest 470 541 36,000  Level Gander Center
11:20 61.4500 -61.0333 224° Southwest 470 541 36,000  Level Gander Center
11:21 61.3500 -61.2167 221° Southwest 470 541 36,000  Level Gander Center
11:22 61.3000 -61.2500 198° South 470 541 36,000  Level Montreal Center
11:23 61.2000 -61.4333 221° Southwest 470 541 36,000  Level Montreal Center
11:24 61.1000 -61.6167 222° Southwest 470 541 36,000  Level Montreal Center
11:25 60.9833 -61.7667 212° Southwest 470 541 36,000  Level Montreal Center
11:26 60.8833 -61.9500 222° Southwest 470 541 36,000  Level Montreal Center
11:27 60.7833 -62.1333 222° Southwest 470 541 36,000  Level Montreal Center
11:28 60.6833 -62.2833 216° Southwest 470 541 36,000  Level Montreal Center
11:29 60.6000 -62.5000 232° Southwest 470 541 36,000  Level Montreal Center
11:30 60.5500 -62.7167 245° Southwest 460 529 36,000  Level Montreal Center
11:31 60.5167 -62.9500 254° West 460 529 36,000  Level Montreal Center
11:32 60.4667 -63.2000 248° West 460 529 36,000  Level Montreal Center
11:33 60.4167 -63.4667 249° West 460 529 36,000  Level Montreal Center
11:34 60.3833 -63.7167 255° West 460 529 36,000  Level Montreal Center
11:35 60.3333 -63.9500 247° West 460 529 36,000  Level Montreal Center
11:36 60.2833 -64.1667 245° Southwest 450 518 36,000  Level Montreal Center
11:37 60.2333 -64.4167 248° West 450 518 36,000  Level Montreal Center
11:38 60.1833 -64.6500 247° West 460 529 36,000  Level Montreal Center
11:39 60.1333 -64.9000 248° West 460 529 36,000  Level Montreal Center
11:40 60.0667 -65.1167 238° Southwest 460 529 36,000  Level Montreal Center
11:41 59.9833 -65.2833 225° Southwest 470 541 36,000  Level Montreal Center
11:42 59.8833 -65.4833 225° Southwest 470 541 36,000  Level Montreal Center
11:43 59.7833 -65.6500 220° Southwest 470 541 36,000  Level Montreal Center
11:44 59.6833 -65.8167 220° Southwest 470 541 36,000  Level Montreal Center
11:45 59.6000 -65.9833 225° Southwest 470 541 36,000  Level Montreal Center
11:46 59.4833 -66.1500 216° Southwest 470 541 36,000  Level Montreal Center
11:47 59.3833 -66.3333 223° Southwest 470 541 36,000  Level Montreal Center
11:48 59.3000 -66.5000 226° Southwest 470 541 36,000  Level Montreal Center
11:49 59.1833 -66.6500 213° Southwest 470 541 36,000  Level Montreal Center
11:50 59.1000 -66.8167 226° Southwest 470 541 36,000  Level Montreal Center
11:51 58.9833 -66.9667 214° Southwest 460 529 36,000  Level Montreal Center
11:52 58.9000 -67.1667 231° Southwest 470 541 36,000  Level Montreal Center
11:53 58.7500 -67.4500 224° Southwest 470 541 36,000  Level Gander Center
11:54 58.6333 -67.6000 214° Southwest 470 541 36,000  Level Gander Center
11:55 58.5500 -67.7667 226° Southwest 470 541 36,000  Level Gander Center
11:56 58.4333 -67.9167 214° Southwest 470 541 36,000  Level Gander Center
11:57 58.3333 -68.0833 221° Southwest 470 541 36,000  Level Gander Center
11:58 58.2333 -68.2500 221° Southwest 480 552 36,000  Level Gander Center
11:59 58.1333 -68.4000 218° Southwest 490 564 36,000  Level Gander Center
12:00 58.0667 -68.4500 202° Southwest 510 587 36,000  Level Montreal Center
12:01 57.9667 -68.6000 219° Southwest 470 541 36,000  Level Montreal Center
12:02 57.8500 -68.7500 214° Southwest 460 529 36,000  Level Montreal Center
12:03 57.7333 -68.9000 214° Southwest 460 529 36,000  Level Montreal Center
12:04 57.6333 -69.0500 219° Southwest 460 529 36,000  Level Montreal Center
12:05 57.5333 -69.1833 216° Southwest 460 529 36,000  Level Montreal Center
12:06 57.4167 -69.3000 208° Southwest 460 529 36,000  Level Montreal Center
12:07 57.3333 -69.4500 224° Southwest 460 529 36,000  Level Montreal Center
12:08 57.2167 -69.5833 212° Southwest 460 529 36,000  Level Montreal Center
12:09 57.1167 -69.7333 219° Southwest 460 529 36,000  Level Montreal Center
12:10 57.0167 -69.8667 216° Southwest 460 529 36,000  Level Montreal Center
12:11 56.9167 -70.0000 216° Southwest 460 529 36,000  Level Montreal Center
12:12 56.8000 -70.1167 209° Southwest 460 529 36,000  Level Montreal Center
12:13 56.7167 -70.2500 221° Southwest 450 518 36,000  Level Montreal Center
12:14 56.6000 -70.4000 215° Southwest 450 518 36,000  Level Montreal Center
12:15 56.5000 -70.5333 216° Southwest 450 518 36,000  Level Montreal Center
12:16 56.3833 -70.6667 212° Southwest 460 529 36,000  Level Montreal Center
12:17 56.2833 -70.8000 217° Southwest 460 529 36,000  Level Montreal Center
12:18 56.1667 -70.9167 209° Southwest 450 518 36,000  Level Montreal Center
12:19 56.0667 -71.0500 217° Southwest 450 518 36,000  Level Montreal Center
12:20 55.9500 -71.1500 206° Southwest 450 518 36,000  Level Montreal Center
12:21 55.8667 -71.2833 222° Southwest 450 518 36,000  Level Montreal Center
12:22 55.7500 -71.4167 213° Southwest 450 518 36,000  Level Montreal Center
12:23 55.6500 -71.5500 217° Southwest 450 518 36,000  Level Montreal Center
12:24 55.5333 -71.6500 206° Southwest 450 518 36,000  Level Montreal Center
12:25 55.4333 -71.7833 217° Southwest 450 518 36,000  Level Montreal Center
12:26 55.3333 -71.9000 214° Southwest 450 518 36,000  Level Montreal Center
12:27 55.2333 -72.0333 217° Southwest 450 518 36,000  Level Montreal Center
12:28 55.1167 -72.1333 206° Southwest 450 518 36,000  Level Montreal Center
12:29 55.0167 -72.2667 217° Southwest 450 518 36,000  Level Montreal Center
12:30 54.9167 -72.3833 214° Southwest 450 518 36,000  Level Montreal Center
12:31 54.8000 -72.5167 213° Southwest 450 518 36,000  Level Montreal Center
12:32 54.6833 -72.6333 210° Southwest 450 518 36,000  Level Montreal Center
12:33 54.6000 -72.7333 215° Southwest 450 518 36,000  Level Montreal Center
12:34 54.4833 -72.8667 214° Southwest 450 518 36,000  Level Montreal Center
12:35 54.3833 -72.9833 214° Southwest 450 518 36,000  Level Montreal Center
12:36 54.2667 -73.0833 207° Southwest 450 518 36,000  Level Montreal Center
12:37 54.1667 -73.2000 214° Southwest 450 518 36,000  Level Montreal Center
12:38 54.0500 -73.3167 210° Southwest 450 518 36,000  Level Montreal Center
12:39 53.9500 -73.4500 218° Southwest 450 518 36,000  Level Montreal Center
12:40 53.8333 -73.5333 203° Southwest 450 518 36,000  Level Montreal Center
12:41 53.7333 -73.6500 215° Southwest 450 518 36,000  Level Montreal Center
12:42 53.6167 -73.7500 207° Southwest 450 518 36,000  Level Montreal Center
12:43 53.5000 -73.8667 211° Southwest 450 518 36,000  Level Montreal Center
12:44 53.4000 -73.9500 206° Southwest 450 518 36,000  Level Montreal Center
12:45 53.2833 -74.0500 207° Southwest 450 518 36,000  Level Montreal Center
12:46 53.1667 -74.1333 203° Southwest 450 518 36,000  Level Montreal Center
12:47 53.0500 -74.2500 211° Southwest 460 529 36,000  Level Montreal Center
12:48 52.9500 -74.3500 211° Southwest 460 529 36,000  Level Montreal Center
12:49 52.8333 -74.4333 203° Southwest 460 529 36,000  Level Montreal Center
12:50 52.7167 -74.5167 203° Southwest 460 529 36,000  Level Montreal Center
12:51 52.5833 -74.6000 201° Southwest 460 529 36,000  Level Montreal Center
12:52 52.4833 -74.7000 211° Southwest 460 529 36,000  Level Montreal Center
12:53 52.3500 -74.8000 205° Southwest 460 529 36,000  Level Montreal Center
12:54 52.2500 -74.9000 211° Southwest 440 506 36,000  Level Montreal Center
12:55 52.1333 -74.9833 204° Southwest 450 518 36,000  Level Montreal Center
12:56 52.0167 -75.0667 204° Southwest 480 552 36,000  Level Montreal Center
12:57 51.9000 -75.1667 208° Southwest 460 529 36,000  Level Montreal Center
12:58 51.7833 -75.2500 204° Southwest 450 518 36,000  Level Montreal Center
12:59 51.6667 -75.3333 204° Southwest 450 518 36,000  Level Montreal Center
13:00 51.5500 -75.4167 204° Southwest 460 529 36,000  Level Montreal Center
13:01 51.4500 -75.5000 207° Southwest 450 518 36,000  Level Montreal Center
13:02 51.3333 -75.6167 212° Southwest 460 529 36,000  Level Montreal Center
13:03 51.2167 -75.7000 204° Southwest 450 518 36,000  Level Montreal Center
13:04 51.1000 -75.7833 204° Southwest 450 518 36,000  Level Montreal Center
13:05 50.9833 -75.8500 200° South 460 529 36,000  Level Montreal Center
13:06 50.8667 -75.9333 204° Southwest 460 529 36,000  Level Montreal Center
13:07 50.7500 -76.0500 212° Southwest 460 529 36,000  Level Montreal Center
13:08 50.6333 -76.1167 200° South 460 529 36,000  Level Montreal Center
13:09 50.5167 -76.2000 204° Southwest 460 529 36,000  Level Montreal Center
13:10 50.4000 -76.2833 204° Southwest 460 529 36,000  Level Montreal Center
13:11 50.2833 -76.3833 209° Southwest 460 529 36,000  Level Montreal Center
13:12 50.1667 -76.4667 205° Southwest 460 529 36,000  Level Montreal Center
13:13 50.0333 -76.5500 202° Southwest 460 529 36,000  Level Montreal Center
13:14 49.9167 -76.6167 200° South 460 529 36,000  Level Montreal Center
13:15 49.8000 -76.7167 209° Southwest 460 529 36,000  Level Montreal Center
13:16 49.7000 -76.8000 208° Southwest 460 529 36,000  Level Montreal Center
13:17 49.5833 -76.8667 200° South 460 529 36,000  Level Montreal Center
13:18 49.4667 -76.9500 205° Southwest 450 518 36,000  Level Montreal Center
13:19 49.3333 -77.0500 206° Southwest 480 552 36,000  Level Montreal Center
13:20 49.2333 -77.1167 204° Southwest 450 518 36,000  Level Montreal Center
13:21 49.1167 -77.2000 205° Southwest 460 529 36,000  Level Montreal Center
13:22 49.0000 -77.2667 201° Southwest 460 529 36,000  Level Montreal Center
13:23 48.8667 -77.3500 202° Southwest 460 529 36,000  Level Montreal Center
13:24 48.7500 -77.4500 209° Southwest 450 518 36,000  Level Montreal Center
13:25 48.6333 -77.5167 201° Southwest 460 529 36,000  Level Montreal Center
13:26 48.5167 -77.5833 201° Southwest 450 518 36,000  Level Montreal Center
13:27 48.4000 -77.6667 205° Southwest 450 518 36,000  Level Montreal Center
13:28 48.2833 -77.7333 201° Southwest 460 529 36,000  Level Montreal Center
13:29 48.1667 -77.8333 210° Southwest 450 518 36,000  Level Montreal Center
13:30 48.0667 -77.9000 204° Southwest 450 518 36,000  Level Montreal Center
13:31 47.9167 -77.9667 197° South 460 529 36,000  Level Montreal Center
13:32 47.8000 -78.0500 206° Southwest 460 529 36,000  Level Montreal Center
13:33 47.7000 -78.1167 204° Southwest 460 529 36,000  Level Montreal Center
13:34 47.5667 -78.1833 199° South 460 529 36,000  Level Montreal Center
13:35 47.4500 -78.2500 201° Southwest 460 529 36,000  Level Montreal Center
13:36 47.3333 -78.3167 201° Southwest 460 529 36,000  Level Montreal Center
13:37 47.2167 -78.3833 201° Southwest 460 529 36,000  Level Montreal Center
13:38 47.0833 -78.4333 194° South 460 529 36,000  Level Montreal Center
13:39 46.9667 -78.5333 210° Southwest 460 529 36,000  Level Montreal Center
13:40 46.8500 -78.5667 191° South 460 529 36,000  Level Montreal Center
13:41 46.7333 -78.6667 210° Southwest 460 529 36,000  Level Montreal Center
13:42 46.6167 -78.7000 191° South 460 529 36,000  Level Montreal Center
13:43 46.5000 -78.8000 211° Southwest 460 529 36,000  Level Montreal Center
13:44 46.3833 -78.8333 191° South 460 529 36,000  Level Montreal Center
13:45 46.2500 -78.9000 199° South 450 518 36,000  Level Montreal Center
13:46 46.1333 -78.9667 202° Southwest 450 518 36,000  Level Montreal Center
13:47 46.0167 -79.0333 202° Southwest 450 518 36,000  Level Montreal Center
13:48 45.9000 -79.1000 202° Southwest 450 518 36,000  Level Montreal Center
13:54 45.1728 -79.4876 202° Southwest 462 532 36,000  Level FlightAware ADS-B
13:55 45.0998 -79.5258 200° South 462 532 36,000  Level FlightAware ADS-B
13:56 44.9419 -79.6078 200° South 462 532 36,000  Level FlightAware ADS-B
14:00 44.4657 -79.8972 203° Southwest 451 519 36,000  Level FlightAware ADS-B
14:01 44.3600 -79.9934 213° Southwest 451 519 36,000  Level FlightAware ADS-B
14:02 44.2898 -80.0565 213° Southwest 452 520 36,000  Level FlightAware ADS-B
14:03 44.2232 -80.1159 213° Southwest 454 522 36,000  Level FlightAware ADS-B
14:03 44.1492 -80.1819 213° Southwest 455 524 36,000  Level FlightAware ADS-B
14:04 44.0835 -80.2402 213° Southwest 453 521 36,000  Level FlightAware ADS-B
14:05 44.0111 -80.3043 212° Southwest 454 522 36,000  Level FlightAware ADS-B
14:05 43.9382 -80.3687 212° Southwest 456 525 36,000  Level FlightAware ADS-B
14:06 43.8715 -80.4275 212° Southwest 456 525 36,000  Level FlightAware ADS-B
14:07 43.7947 -80.4950 212° Southwest 455 524 36,000  Level FlightAware ADS-B
14:07 43.7227 -80.5581 212° Southwest 455 524 36,000  Level FlightAware ADS-B
14:08 43.6606 -80.6123 212° Southwest 449 517 36,000  Level FlightAware ADS-B
14:09 43.5833 -80.6797 212° Southwest 449 517 36,000  Level FlightAware ADS-B
14:09 43.5124 -80.7413 212° Southwest 450 518 36,000  Level FlightAware ADS-B
14:10 43.4426 -80.8018 212° Southwest 450 518 36,000  Level FlightAware ADS-B
14:11 43.3735 -80.8614 212° Southwest 450 518 36,000  Level FlightAware ADS-B
14:11 43.3014 -80.9236 212° Southwest 453 521 36,000  Level FlightAware ADS-B
14:12 43.2302 -80.9848 212° Southwest 454 522 36,000  Level FlightAware ADS-B
14:13 43.1582 -81.0463 212° Southwest 452 520 36,000  Level FlightAware ADS-B
14:13 43.0916 -81.1032 212° Southwest 449 517 36,000  Level FlightAware ADS-B
14:14 43.0166 -81.1610 209° Southwest 455 524 36,000  Level FlightAware ADS-B
14:15 42.9491 -81.2021 204° Southwest 457 526 36,000  Level FlightAware ADS-B
14:15 42.8635 -81.2566 205° Southwest 457 526 36,000  Level FlightAware ADS-B
14:16 42.7876 -81.3035 204° Southwest 457 526 36,000  Level FlightAware ADS-B
14:17 42.7185 -81.3461 204° Southwest 459 528 36,000  Level FlightAware ADS-B
14:17 42.6455 -81.3909 204° Southwest 459 528 36,000  Level FlightAware ADS-B
14:18 42.5550 -81.4462 204° Southwest 461 531 36,000  Level FlightAware ADS-B
14:20 42.3726 -81.5570 204° Southwest 457 526 36,000  Level FlightAware ADS-B
14:20 42.3078 -81.5961 204° Southwest 457 526 36,000  Level Cleveland Center
14:21 42.1922 -81.6658 204° Southwest 453 521 36,000  Level Cleveland Center
14:22 42.0758 -81.7358 204° Southwest 454 522 36,000  Level Cleveland Center
14:23 41.9581 -81.8056 204° Southwest 457 526 36,000  Level Cleveland Center
14:24 41.8400 -81.8778 205° Southwest 462 532 36,000  Level Cleveland Center
14:25 41.7214 -81.9475 204° Southwest 463 533 36,000  Level Cleveland Center
14:26 41.6025 -82.0169 204° Southwest 465 535 36,000  Level Cleveland Center
14:27 41.4647 -82.0989 204° Southwest 465 535 36,000  Level Cleveland Center
14:28 41.3481 -82.1650 203° Southwest 459 528 36,000  Level Cleveland Center
14:29 41.2214 -82.2086 195° South 467 537 36,000  Level Cleveland Center
14:30 41.0967 -82.2547 196° South 466 536 36,000  Level Cleveland Center
14:37 40.3482 -82.5197 196° South 448 516 36,000  Level FlightAware ADS-B
14:37 40.2586 -82.5510 195° South 447 514 36,000  Level FlightAware ADS-B
14:38 40.1801 -82.5774 194° South 447 514 36,000  Level FlightAware ADS-B
14:39 40.0915 -82.5913 187° South 458 527 36,000  Level FlightAware ADS-B
14:39 40.0140 -82.5970 183° South 458 527 36,000  Level FlightAware ADS-B
14:40 39.9386 -82.6028 183° South 465 535 36,000  Level FlightAware ADS-B
14:41 39.8476 -82.6091 183° South 468 539 36,000  Level FlightAware ADS-B
14:41 39.7632 -82.6148 183° South 469 540 36,000  Level FlightAware ADS-B
14:42 39.6673 -82.6212 183° South 468 539 36,000  Level FlightAware ADS-B
14:43 39.5821 -82.6269 183° South 468 539 36,000  Level FlightAware ADS-B
14:43 39.5004 -82.6324 183° South 470 541 36,000  Level FlightAware ADS-B
14:44 39.4148 -82.6382 183° South 470 541 36,000  Level FlightAware ADS-B
14:44 39.3238 -82.6442 183° South 469 540 36,000  Level FlightAware ADS-B
14:45 39.2407 -82.6498 183° South 469 540 36,000  Level FlightAware ADS-B
14:46 39.1521 -82.6556 183° South 469 540 36,000  Level FlightAware ADS-B
14:47 39.0611 -82.6617 183° South 469 540 36,000  Level FlightAware ADS-B
14:47 38.9738 -82.6675 183° South 470 541 36,000  Level FlightAware ADS-B
14:48 38.8963 -82.6725 183° South 472 543 36,000  Level FlightAware ADS-B
14:49 38.8122 -82.6781 183° South 471 542 36,000  Level FlightAware ADS-B
14:49 38.7141 -82.6845 183° South 470 541 36,000  Level FlightAware ADS-B
14:50 38.5792 -82.6925 183° South 471 542 36,000  Level Indianapolis Center
14:51 38.4475 -82.7008 183° South 472 543 36,000  Level Indianapolis Center
14:52 38.3150 -82.7097 183° South 475 547 36,000  Level Indianapolis Center
14:53 38.1625 -82.7197 183° South 469 540 36,000  Level Indianapolis Center
14:54 38.0328 -82.7297 183° South 464 534 36,000  Level Indianapolis Center
14:55 37.9025 -82.7372 183° South 465 535 36,000  Level Indianapolis Center
14:57 37.7742 -82.7467 183° South 462 532 36,000  Level Indianapolis Center
14:58 37.6547 -82.7783 192° South 438 504 36,000  Level Indianapolis Center
14:59 37.5469 -82.8372 203° Southwest 422 486 36,000  Level Indianapolis Center
15:00 37.4442 -82.9053 208° Southwest 417 480 36,000  Level Indianapolis Center
15:01 37.3239 -82.9858 208° Southwest 420 483 36,000  Level Indianapolis Center
15:02 37.2217 -83.0528 208° Southwest 416 479 36,000  Level Indianapolis Center
15:03 37.1192 -83.1189 207° Southwest 417 480 36,000  Level Indianapolis Center
15:04 37.0167 -83.1850 207° Southwest 417 480 36,000  Level Indianapolis Center
15:05 36.9158 -83.2503 207° Southwest 413 475 36,000  Level Indianapolis Center
15:06 36.8167 -83.3136 207° Southwest 403 464 36,000  Level Indianapolis Center
15:07 36.7022 -83.3869 207° Southwest 399 459 36,000  Level Indianapolis Center
15:08 36.6031 -83.4511 207° Southwest 401 461 36,000  Level Indianapolis Center
15:09 36.5039 -83.5161 208° Southwest 402 463 36,000  Level Indianapolis Center
15:10 36.4142 -83.5731 207° Southwest 401 461 36,000  Level Indianapolis Center
15:11 36.3125 -83.6364 207° Southwest 405 466 36,000  Level Indianapolis Center
15:12 36.1928 -83.7119 207° Southwest 402 463 36,000  Level Indianapolis Center
15:13 36.0931 -83.7764 208° Southwest 402 463 36,000  Level Indianapolis Center
15:14 35.9925 -83.8403 207° Southwest 404 465 36,000  Level Indianapolis Center
15:15 35.8881 -83.8947 203° Southwest 405 466 36,000  Level Indianapolis Center
15:16 35.7711 -83.9264 192° South 425 489 36,000  Level Indianapolis Center
15:17 35.6472 -83.9594 192° South 428 493 36,000  Level Atlanta Center
15:18 35.5306 -83.9878 191° South 434 499 36,000  Level Atlanta Center
15:19 35.4094 -84.0183 192° South 434 499 36,000  Level Atlanta Center
15:20 35.2928 -84.0439 190° South 434 499 36,000  Level Atlanta Center
15:21 35.1778 -84.0744 192° South 429 494 36,000  Level Atlanta Center
15:22 35.0589 -84.0997 190° South 429 494 36,000  Level Atlanta Center
15:23 34.9464 -84.1300 192° South 429 494 36,000  Level Atlanta Center
15:24 34.8272 -84.1553 190° South 429 494 36,000  Level Atlanta Center
15:25 34.7103 -84.1853 192° South 429 494 36,000  Level Atlanta Center
15:26 34.6081 -84.2053 189° South 423 487 36,000  Level Atlanta Center
15:27 34.4892 -84.2328 191° South 432 497 36,000  Level Atlanta Center
15:28 34.3700 -84.2603 191° South 432 497 36,000  Level Atlanta Center
15:29 34.2531 -84.2900 192° South 432 497 36,000  Level Atlanta Center
15:30 34.1217 -84.3250 192° South 432 497 36,000  Level Atlanta Center
15:31 34.0067 -84.3494 190° South 437 503 36,000  Level Atlanta Center
15:32 33.8919 -84.3767 191° South 429 494 36,000  Level Atlanta Center
15:33 33.7728 -84.4061 192° South 429 494 36,000  Level Atlanta Center
15:34 33.6683 -84.4281 190° South 429 494 36,000  Level Atlanta Center
15:35 33.5453 -84.4375 184° South 429 494 36,000 240 Level Atlanta Center
15:36 33.4200 -84.4344 179° South 440 506 36,500 480 Climbing Atlanta Center
15:37 33.2989 -84.4339 180° South 440 506 37,000 240 Climbing Atlanta Center
15:38 33.1758 -84.4311 179° South 447 514 37,000  Level Atlanta Center
15:39 33.0506 -84.4256 178° South 442 509 37,000  Level Atlanta Center
15:40 32.9275 -84.4250 180° South 437 503 37,000  Level Atlanta Center
15:41 32.7939 -84.4244 180° South 442 509 37,000  Level Atlanta Center
15:42 32.6708 -84.4164 177° South 442 509 37,000  Level Atlanta Center
15:43 32.5475 -84.4133 179° South 442 509 37,000  Level Atlanta Center
15:44 32.4264 -84.4153 181° South 437 503 37,000  Level Atlanta Center
15:45 32.3056 -84.4100 178° South 437 503 37,000  Level Atlanta Center
15:47 32.0803 -84.4053 179° South 436 502 37,000  Level Jacksonville Center
15:48 31.9592 -84.4011 178° South 436 502 37,000  Level Jacksonville Center
15:49 31.8381 -84.4014 180° South 436 502 37,000  Level Jacksonville Center
15:50 31.7169 -84.3994 179° South 436 502 37,000  Level Jacksonville Center
15:51 31.5981 -84.3950 178° South 436 502 37,000  Level Jacksonville Center
15:52 31.4794 -84.3639 167° South 436 502 37,000  Level Jacksonville Center
15:58 30.8079 -84.0327 167° South 469 540 37,000  Level FlightAware ADS-B (KTLH)
15:58 30.7093 -83.9854 158° South 467 537 37,000  Level FlightAware ADS-B (KTLH)
15:59 30.6297 -83.9473 158° South 466 536 37,000  Level FlightAware ADS-B (KTLH)
16:00 30.5598 -83.9139 158° South 466 536 37,000  Level FlightAware ADS-B (KTLH)
16:00 30.4688 -83.8706 158° South 464 534 37,000  Level FlightAware ADS-B (KTLH)
16:01 30.3921 -83.8341 158° South 464 534 37,000  Level FlightAware ADS-B (KTLH)
16:02 30.3143 -83.7972 158° South 466 536 37,000  Level FlightAware ADS-B (KTLH)
16:02 30.2335 -83.7589 158° South 466 536 37,000  Level FlightAware ADS-B (KTLH)
16:03 30.1594 -83.7238 158° South 466 536 37,000  Level FlightAware ADS-B (KTLH)
16:04 30.0499 -83.6721 158° South 466 536 37,000  Level FlightAware ADS-B (KTLH)
16:06 29.7986 -83.5537 158° South 462 532 37,000  Level FlightAware ADS-B (KTLH)
16:07 29.6908 -83.5069 158° South 473 544 37,000  Level Jacksonville Center
16:08 29.5722 -83.4514 158° South 473 544 37,000  Level Jacksonville Center
16:09 29.4556 -83.3958 157° South 473 544 37,000  Level Jacksonville Center
16:10 29.3347 -83.3403 158° South 473 544 37,000  Level Jacksonville Center
16:16 28.6561 -83.0243 158° South 465 535 37,000  Level FlightAware ADS-B (KMCO)
16:16 28.5595 -82.9802 158° South 463 533 37,000  Level FlightAware ADS-B (KMCO)
16:17 28.4723 -82.9404 158° South 463 533 37,000  Level FlightAware ADS-B (KMCO)
16:18 28.3908 -82.9033 158° South 464 534 37,000  Level FlightAware ADS-B (KMCO)
16:18 28.3000 -82.8620 158° South 463 533 37,000  Level FlightAware ADS-B (KMCO)
16:19 28.2210 -82.8260 158° South 464 534 37,000  Level FlightAware ADS-B (KMCO)
16:20 28.1530 -82.7951 158° South 464 534 37,000  Level FlightAware ADS-B (KMCO)
16:20 28.0924 -82.7677 158° South 465 535 37,000  Level FlightAware ADS-B (KMCO)
16:21 27.9807 -82.7172 158° South 464 534 37,000  Level FlightAware ADS-B (KMCO)
16:22 27.9177 -82.6878 158° South 471 542 37,000  Level FlightAware ADS-B (KMCO)
16:22 27.8356 -82.6547 160° South 450 518 37,000  Level FlightAware ADS-B (KMCO)
16:23 27.7288 -82.6508 178° South 444 511 37,000  Level FlightAware ADS-B (KMCO)
16:24 27.6561 -82.6514 178° South 448 516 37,000  Level Miami Center
16:25 27.5164 -82.6467 178° South 443 510 37,000  Level Miami Center
16:26 27.3906 -82.6147 167° South 460 529 37,000  Level Miami Center
16:31 26.7421 -82.4878 167° South 449 517 37,000  Level FlightAware ADS-B (KMCO)
16:32 26.6516 -82.4889 181° South 452 520 37,000  Level FlightAware ADS-B (KMCO)
16:33 26.5651 -82.4899 181° South 452 520 37,000  Level FlightAware ADS-B (KMCO)
16:33 26.4792 -82.4909 181° South 452 520 37,000  Level FlightAware ADS-B (KMCO)
16:34 26.4038 -82.4918 181° South 451 519 37,000  Level FlightAware ADS-B (KMCO)
16:35 26.3171 -82.4927 181° South 451 519 37,000  Level FlightAware ADS-B (KMCO)
16:35 26.2345 -82.4937 181° South 451 519 37,000  Level FlightAware ADS-B (KMCO)
16:36 26.1459 -82.4947 181° South 451 519 37,000  Level FlightAware ADS-B (KMCO)
16:37 26.0582 -82.4957 181° South 454 522 37,000  Level FlightAware ADS-B (KMCO)
16:37 25.9707 -82.4966 181° South 454 522 37,000  Level FlightAware ADS-B (KMCO)
16:38 25.8806 -82.4977 181° South 453 521 37,000  Level FlightAware ADS-B (KMCO)
16:39 25.7910 -82.4988 181° South 454 522 37,000  Level FlightAware ADS-B (KMCO)
16:39 25.6973 -82.4999 181° South 455 524 37,000  Level FlightAware ADS-B (KMCO)
16:40 25.6176 -82.5007 181° South 456 525 37,000  Level FlightAware ADS-B (KMCO)
16:41 25.4950 -82.5020 181° South 457 526 37,000 -540 Level FlightAware ADS-B (KMCO)
16:42 25.3209 -82.5040 181° South 457 526 35,800 -1,020 Descending FlightAware ADS-B (KMCO)
16:44 25.1550 -82.5094 181° South 462 532 34,200 -1,200 Descending Miami Center
16:45 25.0256 -82.5103 180° South 462 532 32,900 -1,560 Descending Miami Center
16:46 24.9022 -82.5139 182° South 462 532 31,100 -1,860 Descending Miami Center
16:47 24.7792 -82.5128 180° South 457 526 29,200 -1,860 Descending Miami Center
16:48 24.6600 -82.5142 181° South 444 511 27,400 -1,800 Descending Miami Center
16:49 24.5431 -82.5156 181° South 439 505 25,600 -1,800 Descending Miami Center
16:50 24.4283 -82.5172 181° South 427 491 23,800 -1,800 Descending Miami Center
16:51 24.3133 -82.5167 180° South 419 482 22,100 -1,500 Descending Miami Center
16:52 24.2089 -82.5189 181° South 398 458 20,800 -1,800 Descending Miami Center
16:53 24.1022 -82.5231 182° South 391 450 18,500 -2,100 Descending Miami Center
16:54 23.9814 -82.5222 180° South 385 443 16,600 -1,920 Descending Miami Center
16:56 23.7931 -82.4881 171° South  Level FlightAware Approximate
17:03 22.9891 -82.4091 180° South  Level Estimated
17:04 22.9891 -82.4091 180° South  Level Estimated
17:05 22.9891 -82.4091 180° South  Level Estimated
17:06 22.9891 -82.4091 180° South  Level Estimated
17:07 22.9891 -82.4091 180° South  Level Estimated
17:08 22.9891 -82.4091 180° South  Level Estimated
17:09 22.9891 -82.4091 180° South  Level Estimated
17:10 22.9891 -82.4091 180° South  Level Estimated
17:11 22.9891 -82.4091 180° South  Level Estimated
17:12 22.9891 -82.4091 180° South  Level Estimated
17:13 22.9891 -82.4091 180° South  Level Estimated
17:14 22.9891 -82.4091 180° South  Level Estimated
17:15 22.9891 -82.4091 180° South  Level Estimated
17:16 22.9891 -82.4091 180° South  Level Estimated
17:17 22.9891 -82.4091 180° South  Level Estimated
17:18 22.9891 -82.4091 180° South  Level Estimated
17:19 22.9891 -82.4091 180° South  Level Estimated
17:20 22.9891 -82.4091 180° South  Level Estimated
17:21 22.9891 -82.4091 180° South  Level Estimated
17:22 22.9891 -82.4091 180° South  Level Estimated
17:23 22.9891 -82.4091 180° South  Level Estimated
17:24 22.9891 -82.4091 180° South  Level Estimated
17:25 22.9891 -82.4091 180° South  Level Estimated